Time;durP1;ratioP1;P1;durP2;ratioP2;P2;SDS_P1;SDS_P2;PMS_P1;PMS_P2;Temp;Humidity;BMP_temperature;BMP_pressure;BME280_temperature;BME280_humidity;BME280_pressure;Samples;Min_cycle;Max_cycle;Signal;HPM_P1;HPM_P2
2023/03/24 00:02:55;;;;;;;3.80;0.82;;;11.80;99.90;;;;;;25792288;23;20008;-40
2023/03/24 00:12:57;;;;;;;1.52;0.77;;;11.80;99.90;;;;;;25796202;23;20534;-40
2023/03/24 00:22:58;;;;;;;3.67;1.67;;;11.80;99.90;;;;;;25789300;22;20091;-40
2023/03/24 00:33:00;;;;;;;3.00;1.33;;;11.70;99.90;;;;;;25791348;23;20488;-41
2023/03/24 00:43:02;;;;;;;4.55;1.42;;;11.70;99.90;;;;;;25793436;22;20083;-40
2023/03/24 00:53:03;;;;;;;4.03;1.45;;;11.80;99.90;;;;;;25789546;22;20011;-40
2023/03/24 01:03:05;;;;;;;3.63;1.38;;;11.90;99.90;;;;;;25789077;23;20020;-40
2023/03/24 01:13:06;;;;;;;3.85;1.80;;;12.10;99.90;;;;;;25760034;22;20015;-40
2023/03/24 01:23:07;;;;;;;3.92;1.38;;;12.20;99.90;;;;;;25786896;23;20070;-40
2023/03/24 01:33:09;;;;;;;2.75;1.17;;;12.10;99.90;;;;;;25780457;23;20470;-40
2023/03/24 01:43:21;;;;;;;4.47;1.17;;;12.20;99.90;;;;;;25789251;22;20079;-40
2023/03/24 01:53:24;;;;;;;2.97;1.38;;;12.20;99.90;;;;;;25780455;23;21632;-40
2023/03/24 02:03:29;;;;;;;3.03;1.38;;;12.20;99.90;;;;;;25787829;23;20028;-40
2023/03/24 02:13:30;;;;;;;3.63;1.77;;;12.20;99.90;;;;;;25790192;23;20030;-41
2023/03/24 02:23:55;;;;;;;1.73;0.73;;;12.10;99.90;;;;;;25780961;23;20020;-40
2023/03/24 02:34:24;;;;;;;1.20;0.30;;;12.10;99.90;;;;;;25780367;22;20099;-41
2023/03/24 02:44:35;;;;;;;3.35;1.85;;;11.90;99.90;;;;;;25789827;22;20018;-41
2023/03/24 02:54:48;;;;;;;5.70;1.10;;;11.50;71.90;;;;;;25785213;22;20742;-40
2023/03/24 03:04:54;;;;;;;1.83;0.90;;;11.20;60.80;;;;;;25786186;22;20020;-40
2023/03/24 03:15:02;;;;;;;1.25;0.50;;;11.10;48.90;;;;;;25787092;22;20099;-40
2023/03/24 03:25:03;;;;;;;4.93;1.55;;;11.00;43.20;;;;;;25785043;23;20020;-40
2023/03/24 03:35:21;;;;;;;4.25;1.20;;;10.80;35.40;;;;;;25776926;22;20020;-40
2023/03/24 03:45:22;;;;;;;2.10;0.95;;;10.70;40.70;;;;;;25788063;23;20050;-40
2023/03/24 03:55:24;;;;;;;2.97;0.90;;;10.50;44.10;;;;;;25787752;23;20016;-40
2023/03/24 04:05:56;;;;;;;7.18;1.38;;;10.40;45.70;;;;;;25788299;23;20485;-40
2023/03/24 04:16:09;;;;;;;1.98;0.77;;;10.30;45.50;;;;;;25783541;22;20520;-40
2023/03/24 04:26:40;;;;;;;2.50;1.42;;;10.40;46.00;;;;;;25785483;22;20024;-40
2023/03/24 04:36:53;;;;;;;3.30;1.30;;;10.30;45.90;;;;;;25783319;22;20094;-40
2023/03/24 04:46:56;;;;;;;3.67;1.42;;;10.30;45.60;;;;;;25792973;22;20012;-40
2023/03/24 04:57:00;;;;;;;5.13;1.52;;;10.40;38.80;;;;;;25784969;22;20366;-40
2023/03/24 05:07:02;;;;;;;4.50;2.20;;;10.50;29.20;;;;;;25785568;22;20155;-40
2023/03/24 05:17:03;;;;;;;5.57;2.40;;;10.30;29.50;;;;;;25785555;23;20087;-41
2023/03/24 05:27:04;;;;;;;4.57;1.27;;;10.10;30.00;;;;;;25782288;23;20441;-41
2023/03/24 05:37:08;;;;;;;19.90;2.58;;;10.00;32.60;;;;;;25782419;22;20016;-40
2023/03/24 05:47:09;;;;;;;13.05;3.13;;;9.90;36.70;;;;;;25789691;23;20034;-40
2023/03/24 05:57:15;;;;;;;7.03;1.75;;;10.00;44.20;;;;;;25773744;22;20012;-41
2023/03/24 06:07:16;;;;;;;6.88;2.03;;;10.10;50.80;;;;;;25782677;22;20018;-40
2023/03/24 06:17:20;;;;;;;9.07;2.90;;;10.10;44.40;;;;;;25780781;23;20083;-40
2023/03/24 06:27:24;;;;;;;4.20;1.42;;;10.20;38.60;;;;;;25780077;23;20480;-41
2023/03/24 06:37:26;;;;;;;12.20;2.97;;;10.30;36.10;;;;;;25782926;22;20572;-40
2023/03/24 06:47:27;;;;;;;5.20;1.50;;;10.40;26.00;;;;;;25785702;23;20022;-40
2023/03/24 06:57:28;;;;;;;4.90;2.58;;;10.50;23.10;;;;;;25777533;23;20513;-41
2023/03/24 07:07:29;;;;;;;6.65;1.85;;;10.50;19.30;;;;;;25784474;23;20453;-41
2023/03/24 07:17:30;;;;;;;3.60;1.55;;;10.60;16.60;;;;;;25793853;23;20407;-41
2023/03/24 07:27:31;;;;;;;3.78;1.77;;;10.70;13.10;;;;;;25786846;23;20018;-41
2023/03/24 07:37:32;;;;;;;5.80;1.58;;;10.80;12.80;;;;;;25789020;22;20035;-40
2023/03/24 07:47:33;;;;;;;12.13;2.97;;;11.00;9.00;;;;;;25786229;23;20030;-41
2023/03/24 07:57:36;;;;;;;4.38;1.65;;;11.20;10.00;;;;;;25787619;23;20574;-41
2023/03/24 08:07:37;;;;;;;6.22;1.65;;;11.20;5.30;;;;;;25796083;23;20008;-40
2023/03/24 08:17:38;;;;;;;2.88;1.75;;;11.30;5.00;;;;;;25790421;23;20097;-41
2023/03/24 08:27:42;;;;;;;5.53;1.65;;;11.50;3.10;;;;;;25783208;22;20022;-41
2023/03/24 08:37:44;;;;;;;4.32;0.93;;;11.70;2.40;;;;;;25789445;22;20012;-41
2023/03/24 08:47:48;;;;;;;2.97;1.00;;;12.10;1.00;;;;;;25790723;22;20501;-41
2023/03/24 08:57:49;;;;;;;4.07;1.00;;;12.20;1.00;;;;;;25786009;23;20034;-41
2023/03/24 09:07:51;;;;;;;2.63;0.95;;;12.60;1.00;;;;;;25784128;23;20012;-41
2023/03/24 09:17:52;;;;;;;2.85;1.00;;;12.50;1.00;;;;;;25779462;22;20030;-41
2023/03/24 09:27:55;;;;;;;3.47;1.70;;;12.50;1.00;;;;;;25778358;23;20015;-41
2023/03/24 09:37:56;;;;;;;4.90;2.15;;;12.20;1.00;;;;;;25782660;22;20011;-41
2023/03/24 09:48:13;;;;;;;3.30;1.15;;;12.70;1.00;;;;;;25778528;23;20016;-41
2023/03/24 09:58:14;;;;;;;2.80;0.77;;;12.80;1.00;;;;;;25773130;22;20005;-41
2023/03/24 10:08:24;;;;;;;3.70;1.00;;;12.40;1.00;;;;;;25777907;22;20020;-41
2023/03/24 10:19:06;;;;;;;5.70;1.10;;;12.60;1.00;;;;;;25779821;23;20295;-42
2023/03/24 10:29:31;;;;;;;4.05;1.20;;;13.20;1.00;;;;;;25639087;23;20516;-41
2023/03/24 10:39:32;;;;;;;5.32;1.05;;;13.00;1.00;;;;;;25778744;22;20459;-41
2023/03/24 10:49:33;;;;;;;3.15;1.20;;;13.10;1.00;;;;;;25776962;22;20012;-42
2023/03/24 10:59:38;;;;;;;2.20;0.80;;;13.40;1.00;;;;;;25774421;22;20387;-41
2023/03/24 11:09:45;;;;;;;6.10;1.63;;;13.00;1.00;;;;;;25791222;23;20091;-42
2023/03/24 11:19:51;;;;;;;1.37;0.70;;;13.00;1.00;;;;;;25793864;22;20059;-42
2023/03/24 11:29:54;;;;;;;3.25;1.50;;;12.90;1.00;;;;;;25784131;22;20091;-42
2023/03/24 11:40:25;;;;;;;1.75;0.70;;;13.20;1.00;;;;;;25786252;22;20087;-41
2023/03/24 11:50:28;;;;;;;3.90;1.58;;;13.30;1.00;;;;;;25772459;22;21541;-42
2023/03/24 12:00:36;;;;;;;3.80;1.15;;;13.20;1.00;;;;;;25797476;22;20004;-41
2023/03/24 12:10:50;;;;;;;2.20;0.63;;;12.80;1.00;;;;;;25796733;22;20414;-42
2023/03/24 12:21:09;;;;;;;2.63;1.15;;;13.70;1.00;;;;;;25799585;23;20099;-42
2023/03/24 12:31:18;;;;;;;2.00;0.77;;;14.70;1.00;;;;;;25783780;22;20580;-40
2023/03/24 12:41:44;;;;;;;2.25;0.60;;;14.80;1.00;;;;;;25800515;22;20505;-41
2023/03/24 12:52:06;;;;;;;8.95;1.05;;;13.80;1.00;;;;;;25793843;22;20012;-42
2023/03/24 13:02:44;;;;;;;3.00;0.70;;;14.40;1.00;;;;;;25783250;22;20410;-41
2023/03/24 13:12:58;;;;;;;;;;;14.60;1.00;;;;;;25790911;22;20561;-41
2023/03/24 13:23:31;;;;;;;2.78;1.05;;;15.70;1.00;;;;;;25793983;22;20605;-41
2023/03/24 13:33:35;;;;;;;1.20;0.50;;;14.80;1.00;;;;;;25766515;22;20020;-42
2023/03/24 13:43:36;;;;;;;3.28;0.93;;;13.90;1.00;;;;;;25769326;22;20360;-42
2023/03/24 13:53:43;;;;;;;4.40;0.70;;;14.70;1.00;;;;;;25791621;23;20092;-42
2023/03/24 14:04:06;;;;;;;1.07;0.20;;;14.70;1.00;;;;;;25778933;22;20046;-41
2023/03/24 14:14:13;;;;;;;1.15;0.40;;;14.80;1.00;;;;;;25778143;22;20024;-42
2023/03/24 14:24:20;;;;;;;2.63;0.57;;;14.40;1.00;;;;;;25874886;22;20039;-42
2023/03/24 14:34:24;;;;;;;1.48;0.65;;;14.40;1.00;;;;;;25887221;22;20087;-42
2023/03/24 14:45:05;;;;;;;2.60;0.73;;;14.00;1.00;;;;;;25917529;22;20090;-41
2023/03/24 14:55:11;;;;;;;3.28;1.35;;;13.80;1.00;;;;;;25760640;22;20024;-41
2023/03/24 15:05:18;;;;;;;1.55;0.90;;;13.60;1.00;;;;;;25878362;22;20433;-41
2023/03/24 15:15:23;;;;;;;8.27;1.63;;;14.20;1.00;;;;;;25918040;22;20102;-41
2023/03/24 15:25:27;;;;;;;2.00;0.80;;;14.30;1.00;;;;;;25925016;22;20395;-41
2023/03/24 15:35:32;;;;;;;4.35;0.60;;;14.30;1.00;;;;;;25921862;22;20483;-41
2023/03/24 15:45:36;;;;;;;2.10;0.80;;;14.10;1.00;;;;;;25920271;22;20570;-41
2023/03/24 15:55:38;;;;;;;2.67;0.93;;;13.90;1.00;;;;;;25924442;22;20100;-41
2023/03/24 16:05:47;;;;;;;10.73;1.67;;;13.90;1.00;;;;;;25922417;22;20432;-41
2023/03/24 16:15:58;;;;;;;5.03;0.85;;;13.50;1.00;;;;;;25922848;22;20030;-41
2023/03/24 16:25:59;;;;;;;7.80;1.38;;;13.30;1.00;;;;;;25917662;22;20364;-41
2023/03/24 16:36:00;;;;;;;10.48;1.85;;;13.00;1.00;;;;;;25918218;22;20426;-41
2023/03/24 16:46:02;;;;;;;5.32;2.17;;;12.90;1.00;;;;;;25890988;22;20094;-41
2023/03/24 16:56:04;;;;;;;8.77;3.85;;;12.70;1.00;;;;;;25911374;22;20525;-41
2023/03/24 17:06:06;;;;;;;1.15;0.57;;;12.70;1.00;;;;;;25922482;22;20083;-42
2023/03/24 17:16:09;;;;;;;15.23;1.65;;;12.70;1.00;;;;;;25906773;22;20053;-42
2023/03/24 17:26:10;;;;;;;4.25;1.70;;;12.60;1.00;;;;;;25898471;22;20054;-41
2023/03/24 17:36:15;;;;;;;3.55;1.40;;;12.50;1.00;;;;;;25903471;22;20011;-42
2023/03/24 17:46:16;;;;;;;3.88;1.65;;;12.50;1.00;;;;;;25905139;22;20015;-42
2023/03/24 17:56:17;;;;;;;2.45;1.30;;;12.50;1.00;;;;;;25915614;22;20102;-42
2023/03/24 18:06:18;;;;;;;6.78;1.63;;;12.30;1.00;;;;;;25909203;22;20450;-42
2023/03/24 18:16:20;;;;;;;3.45;0.82;;;12.10;1.00;;;;;;25904608;22;20022;-42
2023/03/24 18:26:22;;;;;;;7.25;2.35;;;12.00;1.00;;;;;;25904549;22;20024;-42
2023/03/24 18:36:27;;;;;;;5.43;2.35;;;11.70;1.00;;;;;;25907933;22;20015;-41
2023/03/24 18:46:29;;;;;;;2.42;1.25;;;11.70;1.00;;;;;;25913790;22;20083;-41
2023/03/24 18:56:30;;;;;;;4.82;1.67;;;11.60;1.00;;;;;;25909053;22;20011;-41
2023/03/24 19:06:34;;;;;;;4.20;1.42;;;11.50;1.00;;;;;;25924738;22;20012;-41
2023/03/24 19:16:35;;;;;;;3.25;1.30;;;11.40;1.00;;;;;;25898073;22;21258;-41
2023/03/24 19:26:36;;;;;;;4.97;1.40;;;11.30;1.00;;;;;;25914536;22;20011;-41
2023/03/24 19:36:40;;;;;;;3.25;1.17;;;11.20;1.00;;;;;;25912399;22;20257;-41
2023/03/24 19:46:41;;;;;;;7.13;1.52;;;11.00;1.00;;;;;;25916852;22;20012;-41
2023/03/24 19:56:42;;;;;;;2.72;0.60;;;11.00;1.00;;;;;;25912144;22;20020;-41
2023/03/24 20:06:44;;;;;;;5.47;0.88;;;10.80;1.00;;;;;;25892235;22;20008;-42
2023/03/24 20:16:45;;;;;;;3.92;1.15;;;10.80;1.00;;;;;;25920085;22;20095;-42
2023/03/24 20:26:46;;;;;;;4.55;1.45;;;10.80;1.00;;;;;;25910988;22;20054;-41
2023/03/24 20:36:47;;;;;;;2.20;0.98;;;10.60;1.00;;;;;;25911264;22;20661;-41
2023/03/24 20:46:48;;;;;;;5.32;1.75;;;10.70;1.00;;;;;;25914973;22;20007;-41
2023/03/24 20:56:51;;;;;;;5.32;1.23;;;10.60;1.00;;;;;;25917629;22;20339;-41
2023/03/24 21:06:53;;;;;;;7.10;0.88;;;10.70;1.00;;;;;;25919164;22;20012;-41
2023/03/24 21:16:54;;;;;;;5.00;1.02;;;10.70;1.00;;;;;;25893253;22;20485;-42
2023/03/24 21:26:55;;;;;;;2.22;0.73;;;10.80;1.00;;;;;;25912280;22;20094;-41
2023/03/24 21:37:00;;;;;;;7.45;2.38;;;10.80;1.00;;;;;;25910954;22;20026;-41
2023/03/24 21:47:01;;;;;;;3.63;1.77;;;10.80;1.00;;;;;;25920379;22;20330;-41
2023/03/24 21:57:02;;;;;;;2.55;1.23;;;10.80;1.00;;;;;;25920575;22;20016;-41
2023/03/24 22:07:12;;;;;;;2.28;1.33;;;10.60;1.00;;;;;;20709793;28;20633;-42
2023/03/24 22:17:13;;;;;;;1.90;0.80;;;10.50;1.00;;;;;;20700034;28;20284;-42
2023/03/24 22:27:14;;;;;;;2.03;0.77;;;10.50;1.00;;;;;;20718541;28;20056;-42
2023/03/24 22:37:15;;;;;;;8.13;1.35;;;10.60;1.00;;;;;;20713690;28;20392;-42
2023/03/24 22:47:16;;;;;;;2.35;1.10;;;10.50;1.00;;;;;;20703926;28;20529;-42
2023/03/24 22:57:17;;;;;;;3.03;1.02;;;10.60;1.00;;;;;;20705419;28;20041;-42
2023/03/24 23:07:20;;;;;;;2.50;0.80;;;10.60;1.00;;;;;;20719118;28;20050;-42
2023/03/24 23:17:22;;;;;;;2.25;0.57;;;10.60;1.00;;;;;;20651959;28;20478;-42
2023/03/24 23:27:24;;;;;;;3.13;1.00;;;10.50;1.00;;;;;;20647284;28;20048;-43
2023/03/24 23:37:27;;;;;;;3.88;1.27;;;10.50;1.00;;;;;;20640505;28;20034;-42
2023/03/24 23:47:31;;;;;;;11.45;1.50;;;10.50;1.00;;;;;;20636475;28;20188;-42
2023/03/24 23:57:32;;;;;;;4.00;1.23;;;10.30;1.00;;;;;;20643471;28;20037;-42
